createdAt,value
2022-11-25T00:04:37.296Z,7.79
2022-11-25T00:09:39.128Z,7.81
2022-11-25T00:14:41.972Z,7.79
2022-11-25T00:19:43.554Z,7.76
2022-11-25T00:24:45.211Z,7.77
2022-11-25T00:29:46.898Z,7.76
2022-11-25T00:34:48.626Z,7.74
2022-11-25T00:39:50.434Z,7.72
2022-11-25T00:44:52.622Z,7.65
2022-11-25T00:49:54.980Z,7.63
2022-11-25T00:54:56.679Z,7.53
2022-11-25T00:59:58.357Z,7.55
2022-11-25T01:05:00.126Z,7.54
2022-11-25T01:10:01.727Z,7.46
2022-11-25T01:15:03.647Z,7.45
2022-11-25T01:20:05.998Z,7.37
2022-11-25T01:25:08.065Z,7.38
2022-11-25T01:30:12.899Z,7.44
2022-11-25T01:35:14.741Z,7.55
2022-11-25T01:40:17.028Z,7.64
2022-11-25T01:45:37.345Z,7.65
2022-11-25T01:50:40.035Z,7.74
2022-11-25T01:55:48.583Z,7.70
2022-11-25T02:00:53.407Z,7.72
2022-11-25T02:06:17.233Z,7.75
2022-11-25T02:11:21.603Z,7.74
2022-11-25T02:16:23.399Z,7.79
2022-11-25T02:21:33.863Z,7.70
2022-11-25T02:26:35.795Z,7.74
2022-11-25T02:31:37.614Z,7.74
2022-11-25T02:36:39.460Z,7.76
2022-11-25T02:41:46.445Z,7.74
2022-11-25T02:46:48.464Z,7.76
2022-11-25T02:51:50.098Z,7.82
2022-11-25T02:56:52.531Z,7.81
2022-11-25T03:01:54.406Z,7.80
2022-11-25T03:06:56.063Z,7.83
2022-11-25T03:12:17.701Z,7.82
2022-11-25T03:17:19.385Z,7.89
2022-11-25T03:22:21.243Z,7.86
2022-11-25T03:27:22.906Z,7.82
2022-11-25T03:32:24.788Z,7.82
2022-11-25T03:37:26.644Z,7.82
2022-11-25T03:42:28.449Z,7.79
2022-11-25T03:47:31.345Z,7.78
2022-11-25T03:52:33.233Z,7.74
2022-11-25T03:57:35.453Z,7.73
2022-11-25T04:02:37.320Z,7.69
2022-11-25T04:07:39.070Z,7.65
2022-11-25T04:12:48.513Z,7.57
2022-11-25T04:17:57.217Z,7.55
2022-11-25T04:22:59.341Z,7.48
2022-11-25T04:28:03.172Z,7.49
2022-11-25T04:33:08.326Z,7.43
2022-11-25T04:38:10.226Z,7.38
2022-11-25T04:43:13.541Z,7.36
2022-11-25T04:48:21.713Z,7.34
2022-11-25T04:53:23.669Z,7.29
2022-11-25T04:58:44.127Z,7.27
2022-11-25T05:03:54.481Z,7.26
2022-11-25T05:08:59.936Z,7.23
2022-11-25T05:14:02.086Z,7.23
2022-11-25T05:19:04.099Z,7.23
2022-11-25T05:24:06.027Z,7.23
2022-11-25T05:29:10.169Z,7.15
2022-11-25T05:34:12.632Z,7.17
2022-11-25T05:39:14.542Z,7.14
2022-11-25T05:44:36.710Z,7.16
2022-11-25T05:49:38.654Z,7.16
2022-11-25T05:54:40.493Z,7.16
2022-11-25T05:59:43.642Z,7.08
2022-11-25T06:04:54.247Z,7.13
2022-11-25T06:10:01.508Z,7.13
2022-11-25T06:15:06.741Z,7.06
2022-11-25T06:20:11.014Z,7.07
2022-11-25T06:25:12.954Z,7.00
2022-11-25T06:30:17.039Z,6.95
2022-11-25T06:35:26.021Z,6.95
2022-11-25T06:40:31.220Z,6.93
2022-11-25T06:45:33.539Z,6.91
2022-11-25T06:50:35.135Z,6.92
2022-11-25T06:55:36.891Z,6.89
2022-11-25T07:00:38.561Z,6.91
2022-11-25T07:05:40.133Z,6.91
2022-11-25T07:10:41.725Z,6.87
2022-11-25T07:15:43.521Z,6.88
2022-11-25T07:20:45.144Z,6.84
2022-11-25T07:25:46.814Z,6.82
2022-11-25T07:31:22.713Z,6.78
2022-11-25T07:36:11.777Z,6.78
2022-11-25T07:41:15.820Z,6.78
2022-11-25T07:46:21.998Z,6.85
2022-11-25T07:51:29.790Z,6.86
2022-11-25T07:56:34.106Z,6.89
2022-11-25T08:01:35.860Z,6.86
2022-11-25T08:06:40.500Z,6.88
2022-11-25T08:11:42.702Z,6.92
2022-11-25T08:16:45.420Z,6.91
2022-11-25T08:21:50.047Z,6.89
2022-11-25T08:26:52.218Z,6.92
2022-11-25T08:31:54.087Z,7.00
2022-11-25T08:36:55.733Z,7.09
2022-11-25T08:41:57.506Z,7.22
2022-11-25T10:45:43.014Z,9.09
2022-11-25T10:51:05.100Z,9.09
2022-11-25T10:56:12.510Z,9.07
2022-11-25T11:01:22.303Z,9.11
2022-11-25T11:06:35.315Z,9.13
2022-11-25T11:11:49.076Z,9.08
2022-11-25T11:16:56.364Z,9.10
2022-11-25T11:22:16.171Z,9.21
2022-11-25T11:27:25.500Z,9.28
2022-11-25T11:32:29.227Z,9.38
2022-11-25T11:37:36.899Z,9.41
2022-11-25T11:42:59.174Z,9.49
2022-11-25T11:48:13.285Z,9.51
2022-11-25T11:53:30.396Z,9.51
2022-11-25T11:58:57.545Z,9.57
2022-11-25T12:04:20.953Z,9.56
2022-11-25T12:09:25.145Z,9.61
2022-11-25T12:14:50.923Z,9.63
2022-11-25T12:19:58.863Z,9.69
2022-11-25T12:25:09.950Z,9.67
2022-11-25T12:30:16.469Z,9.70
2022-11-25T12:35:57.383Z,9.72
2022-11-25T12:40:59.097Z,9.72
2022-11-25T12:46:24.740Z,9.73
2022-11-25T12:51:54.424Z,9.71
2022-11-25T12:57:22.702Z,9.73
2022-11-25T13:02:42.636Z,9.75
2022-11-25T13:08:13.766Z,9.82
2022-11-25T13:13:36.703Z,9.81
2022-11-25T13:18:43.494Z,9.75
2022-11-25T13:23:49.013Z,9.74
2022-11-25T13:28:52.225Z,9.77
2022-11-25T13:34:09.305Z,9.79
2022-11-25T13:39:16.739Z,9.74
2022-11-25T13:44:25.551Z,9.73
2022-11-25T13:49:32.811Z,9.75
2022-11-25T13:54:55.359Z,9.73
2022-11-25T14:00:05.845Z,9.77
2022-11-25T14:05:27.239Z,9.81
2022-11-25T14:10:46.028Z,9.76
2022-11-25T14:16:09.538Z,9.71
2022-11-25T14:21:21.508Z,9.66
2022-11-25T14:26:48.791Z,9.62
2022-11-25T14:31:59.739Z,9.63
2022-11-25T14:37:12.159Z,9.64
2022-11-25T14:42:17.871Z,9.65
2022-11-25T14:47:28.198Z,9.63
2022-11-25T14:52:35.908Z,9.60
2022-11-25T14:57:43.926Z,9.60
2022-11-25T15:02:57.127Z,9.60
2022-11-25T15:08:08.566Z,9.56
2022-11-25T15:13:24.842Z,9.57
2022-11-25T15:18:26.645Z,9.57
2022-11-25T15:23:34.915Z,9.54
2022-11-25T15:28:39.079Z,9.53
2022-11-25T15:33:42.593Z,9.51
2022-11-25T15:38:46.417Z,9.51
2022-11-25T15:43:52.455Z,9.47
2022-11-25T15:48:58.704Z,9.45
2022-11-25T15:54:05.584Z,9.42
2022-11-25T15:59:40.729Z,9.41
2022-11-25T16:04:43.553Z,9.37
2022-11-25T16:09:51.378Z,9.31
2022-11-25T16:14:53.054Z,9.28
2022-11-25T16:19:54.788Z,9.23
2022-11-25T16:25:02.182Z,9.18
2022-11-25T16:30:04.428Z,9.13
2022-11-25T16:35:15.706Z,9.06
2022-11-25T16:40:19.027Z,9.00
2022-11-25T16:45:26.423Z,8.97
2022-11-25T16:50:28.282Z,8.92
2022-11-25T16:55:30.921Z,8.91
2022-11-25T17:00:32.596Z,8.84
2022-11-25T17:05:36.902Z,8.73
2022-11-25T17:10:39.915Z,8.75
2022-11-25T17:15:41.683Z,8.77
2022-11-25T17:20:44.406Z,8.76
2022-11-25T17:25:49.416Z,8.73
2022-11-25T17:30:51.232Z,8.74
2022-11-25T17:35:52.978Z,8.74
2022-11-25T17:40:54.853Z,8.69
2022-11-25T17:45:56.631Z,8.64
2022-11-25T17:50:59.508Z,8.61
2022-11-25T17:56:03.037Z,8.63
2022-11-25T18:01:04.878Z,8.60
2022-11-25T18:06:07.002Z,8.57
2022-11-25T18:11:15.122Z,8.47
2022-11-25T18:16:18.921Z,8.48
2022-11-25T18:21:23.894Z,8.48
2022-11-25T18:26:25.563Z,8.31
2022-11-25T18:31:28.061Z,8.32
2022-11-25T18:36:29.797Z,8.29
2022-11-25T18:41:31.502Z,8.25
2022-11-25T18:46:41.373Z,8.25
2022-11-25T18:51:43.926Z,8.27
2022-11-25T18:56:53.870Z,8.18
2022-11-25T19:01:55.751Z,8.21
2022-11-25T19:06:57.529Z,8.18
2022-11-25T19:11:59.257Z,8.17
2022-11-25T19:17:03.405Z,8.12
2022-11-25T19:22:15.819Z,8.11
2022-11-25T19:27:24.043Z,8.05
2022-11-25T19:32:28.711Z,8.02
2022-11-25T19:37:30.869Z,7.99
2022-11-25T19:42:35.759Z,7.94
2022-11-25T19:47:37.386Z,7.91
2022-11-25T19:52:40.094Z,7.93
2022-11-25T19:57:41.803Z,7.86
2022-11-25T20:02:44.831Z,7.84
2022-11-25T20:07:47.282Z,7.88
2022-11-25T20:12:49.886Z,7.85
2022-11-25T20:17:54.826Z,7.81
2022-11-25T20:23:01.896Z,7.82
2022-11-25T20:28:07.766Z,7.83
2022-11-25T20:33:09.499Z,7.85
2022-11-25T20:38:20.443Z,7.80
2022-11-25T20:43:38.853Z,7.71
2022-11-25T20:48:40.926Z,7.67
2022-11-25T20:53:46.538Z,7.64
2022-11-25T20:58:48.745Z,7.61
2022-11-25T21:03:50.514Z,7.59
2022-11-25T21:08:58.565Z,7.56
2022-11-25T21:14:00.313Z,7.45
2022-11-25T21:19:02.292Z,7.47
2022-11-25T21:24:16.158Z,7.44
2022-11-25T21:29:21.420Z,7.45
2022-11-25T21:34:26.474Z,7.40
2022-11-25T21:39:31.491Z,7.38
2022-11-25T21:44:43.081Z,7.26
2022-11-25T21:49:45.086Z,7.16
2022-11-25T21:54:47.494Z,7.17
2022-11-25T21:59:49.566Z,7.15
2022-11-25T22:04:52.143Z,7.13
2022-11-25T22:09:53.972Z,7.15
2022-11-25T22:14:58.617Z,7.13
2022-11-25T22:20:00.617Z,7.14
2022-11-25T22:25:03.080Z,7.10
2022-11-25T22:30:05.869Z,6.97
2022-11-25T22:35:19.027Z,6.98
2022-11-25T22:40:20.701Z,6.91
2022-11-25T22:45:34.453Z,6.89
2022-11-25T22:50:36.224Z,6.91
2022-11-25T22:55:37.847Z,6.85
2022-11-25T23:00:42.847Z,6.83
2022-11-25T23:05:44.939Z,6.84
2022-11-25T23:10:47.534Z,6.81
2022-11-25T23:15:54.940Z,6.72
2022-11-25T23:20:56.702Z,6.74
2022-11-25T23:25:58.757Z,6.77
2022-11-25T23:31:02.009Z,6.71
2022-11-25T23:36:09.107Z,6.75
2022-11-25T23:41:16.954Z,6.74
2022-11-25T23:46:22.637Z,6.68
2022-11-25T23:51:25.255Z,6.71
2022-11-25T23:56:28.041Z,6.66
